Time;durP1;ratioP1;P1;durP2;ratioP2;P2;SDS_P1;SDS_P2;PMS_P1;PMS_P2;Temp;Humidity;BMP_temperature;BMP_pressure;BME280_temperature;BME280_humidity;BME280_pressure;Samples;Min_cycle;Max_cycle;Signal;HPM_P1;HPM_P2
2022/05/13 00:00:28;;;;;;;11.82;6.93;;;8.70;99.90;;;;;;5244959;28;20563;-79
2022/05/13 00:02:59;;;;;;;15.80;6.93;;;8.70;99.90;;;;;;5252226;28;20115;-79
2022/05/13 00:05:30;;;;;;;11.93;7.10;;;8.60;99.90;;;;;;5249763;28;20099;-80
2022/05/13 00:08:01;;;;;;;16.95;6.78;;;8.90;99.90;;;;;;5249245;28;20024;-79
2022/05/13 00:10:32;;;;;;;9.63;5.95;;;8.80;99.90;;;;;;5247526;28;20049;-79
2022/05/13 00:13:04;;;;;;;16.95;7.18;;;8.50;99.90;;;;;;5251748;28;20024;-79
2022/05/13 00:15:35;;;;;;;13.60;7.13;;;8.30;99.90;;;;;;5247312;28;20487;-79
2022/05/13 00:18:07;;;;;;;14.00;6.65;;;8.60;99.90;;;;;;5243793;28;20107;-79
2022/05/13 00:20:38;;;;;;;15.88;7.78;;;8.60;99.90;;;;;;5241623;28;20348;-79
2022/05/13 00:23:09;;;;;;;13.38;7.03;;;8.30;99.90;;;;;;5256458;28;20078;-79
2022/05/13 00:25:41;;;;;;;14.25;6.78;;;8.40;99.90;;;;;;5251466;28;20078;-79
2022/05/13 00:28:13;;;;;;;15.50;8.07;;;8.50;99.90;;;;;;5241310;28;20036;-79
2022/05/13 00:30:48;;;;;;;13.85;6.70;;;8.60;99.90;;;;;;5247481;28;20074;-79
2022/05/13 00:33:20;;;;;;;12.10;7.15;;;8.80;99.90;;;;;;5236481;28;20032;-79
2022/05/13 00:35:51;;;;;;;13.63;7.18;;;8.20;99.90;;;;;;5249828;28;20020;-79
2022/05/13 00:38:21;;;;;;;13.05;7.45;;;8.30;99.90;;;;;;5240125;28;20499;-79
2022/05/13 00:40:53;;;;;;;14.70;7.97;;;8.30;99.90;;;;;;5234917;28;20049;-79
2022/05/13 00:43:46;;;;;;;14.60;7.38;;;8.70;99.90;;;;;;5253768;28;20032;-79
2022/05/13 00:46:22;;;;;;;12.60;6.97;;;8.70;99.90;;;;;;5242364;28;20414;-79
2022/05/13 00:48:53;;;;;;;18.00;8.43;;;8.80;99.90;;;;;;5235000;28;20036;-79
2022/05/13 00:51:27;;;;;;;14.50;6.57;;;8.70;99.90;;;;;;5235708;28;20037;-79
2022/05/13 00:53:59;;;;;;;11.27;7.13;;;8.40;99.90;;;;;;5256086;28;20020;-79
2022/05/13 00:56:30;;;;;;;19.17;9.18;;;8.60;99.90;;;;;;5250357;28;20042;-79
2022/05/13 00:59:05;;;;;;;16.35;8.60;;;8.50;99.90;;;;;;5249333;28;20065;-79
2022/05/13 01:01:36;;;;;;;16.58;8.68;;;8.40;99.90;;;;;;5243834;28;20024;-79
2022/05/13 01:04:13;;;;;;;16.48;8.77;;;8.20;99.90;;;;;;5244431;28;20020;-79
2022/05/13 01:06:49;;;;;;;18.98;9.80;;;8.40;99.90;;;;;;5239292;28;20044;-79
2022/05/13 01:09:21;;;;;;;19.58;8.88;;;8.30;99.90;;;;;;5242525;28;20078;-79
2022/05/13 01:11:57;;;;;;;20.23;10.35;;;8.10;99.90;;;;;;5242559;28;20049;-79
2022/05/13 01:14:36;;;;;;;18.23;9.85;;;8.70;99.90;;;;;;5231787;28;20071;-79
2022/05/13 01:20:24;;;;;;;28.25;10.70;;;7.90;99.90;;;;;;5243657;28;20562;-79
2022/05/13 01:23:00;;;;;;;23.45;11.95;;;8.10;99.90;;;;;;5244186;28;20040;-79
2022/05/13 01:25:34;;;;;;;23.85;11.57;;;7.80;99.90;;;;;;5239970;28;20028;-79
2022/05/13 01:28:15;;;;;;;28.25;12.82;;;7.70;99.90;;;;;;5247364;28;20031;-79
2022/05/13 01:30:53;;;;;;;29.17;13.50;;;8.00;99.90;;;;;;5238422;28;20024;-79
2022/05/13 01:33:25;;;;;;;23.27;11.73;;;7.90;99.90;;;;;;5247861;28;20059;-79
2022/05/13 01:35:59;;;;;;;25.83;12.07;;;8.00;99.90;;;;;;5248558;28;20166;-79
2022/05/13 01:38:38;;;;;;;34.28;12.68;;;7.90;99.90;;;;;;5243646;28;20112;-79
2022/05/13 01:41:12;;;;;;;24.70;12.05;;;7.80;99.90;;;;;;5240732;28;20052;-79
2022/05/13 01:43:45;;;;;;;27.98;11.35;;;7.80;99.90;;;;;;5254749;28;20299;-79
2022/05/13 01:46:16;;;;;;;27.13;13.57;;;7.70;99.90;;;;;;5253346;28;20090;-79
2022/05/13 01:48:47;;;;;;;23.67;11.48;;;7.80;99.90;;;;;;5253670;28;20028;-79
2022/05/13 01:51:19;;;;;;;30.70;12.82;;;8.10;99.90;;;;;;5241979;28;20044;-80
2022/05/13 01:53:50;;;;;;;30.58;13.27;;;8.20;99.90;;;;;;5248666;28;20033;-79
2022/05/13 01:56:21;;;;;;;24.35;11.40;;;7.80;99.90;;;;;;5235932;28;21332;-79
2022/05/13 01:58:52;;;;;;;26.90;13.00;;;7.70;99.90;;;;;;5253075;28;20033;-79
2022/05/13 02:01:23;;;;;;;28.77;13.23;;;7.90;99.90;;;;;;5253456;28;20082;-79
2022/05/13 02:03:53;;;;;;;35.67;13.23;;;7.90;99.90;;;;;;5248242;28;20032;-79
2022/05/13 02:06:27;;;;;;;26.02;12.60;;;8.10;99.90;;;;;;5251422;28;20063;-79
2022/05/13 02:08:58;;;;;;;24.88;12.82;;;8.00;99.90;;;;;;5242169;28;20090;-79
2022/05/13 02:11:31;;;;;;;34.15;13.95;;;7.60;99.90;;;;;;5241958;28;20035;-79
2022/05/13 02:14:04;;;;;;;25.10;11.82;;;7.80;99.90;;;;;;5245581;28;20549;-79
2022/05/13 02:16:35;;;;;;;25.63;12.68;;;7.80;99.90;;;;;;5255101;28;20029;-79
2022/05/13 02:19:05;;;;;;;32.58;14.07;;;8.10;99.90;;;;;;5248548;28;20032;-79
2022/05/13 02:21:37;;;;;;;27.05;12.45;;;8.00;99.90;;;;;;5254889;28;20064;-79
2022/05/13 02:24:08;;;;;;;24.15;12.57;;;7.90;99.90;;;;;;5246384;28;20055;-79
2022/05/13 02:26:39;;;;;;;24.65;12.23;;;8.10;99.90;;;;;;5251548;28;20506;-80
2022/05/13 02:29:09;;;;;;;30.30;12.65;;;7.70;99.90;;;;;;5253111;28;20082;-79
2022/05/13 02:31:40;;;;;;;22.77;11.05;;;7.30;99.90;;;;;;5244212;28;20035;-80
2022/05/13 02:34:11;;;;;;;24.85;11.13;;;7.40;99.90;;;;;;5250455;28;20081;-79
2022/05/13 02:36:42;;;;;;;24.65;13.02;;;7.70;99.90;;;;;;5256641;28;20521;-80
2022/05/13 02:39:14;;;;;;;28.60;12.05;;;8.00;99.90;;;;;;5247327;28;20035;-79
2022/05/13 02:41:45;;;;;;;21.90;11.65;;;7.70;99.90;;;;;;5251826;28;20055;-79
2022/05/13 02:44:15;;;;;;;25.70;12.70;;;7.70;99.90;;;;;;5249994;28;20033;-79
2022/05/13 02:46:47;;;;;;;24.70;11.68;;;7.50;99.90;;;;;;5246139;28;20112;-79
2022/05/13 02:49:18;;;;;;;26.08;12.52;;;7.80;99.90;;;;;;5254961;28;20028;-79
2022/05/13 02:51:49;;;;;;;22.60;11.68;;;7.70;99.90;;;;;;5237100;28;20063;-80
2022/05/13 02:54:21;;;;;;;29.23;12.25;;;7.70;99.90;;;;;;5242229;28;20029;-79
2022/05/13 02:56:52;;;;;;;25.70;11.65;;;7.50;99.90;;;;;;5248512;28;20020;-79
2022/05/13 02:59:22;;;;;;;31.17;12.50;;;7.60;99.90;;;;;;5249391;28;20021;-79
2022/05/13 03:01:54;;;;;;;26.75;11.55;;;7.40;99.90;;;;;;5240938;28;20028;-80
2022/05/13 03:04:25;;;;;;;23.58;11.60;;;7.30;99.90;;;;;;5243604;28;20037;-79
2022/05/13 03:06:56;;;;;;;21.65;10.68;;;7.60;99.90;;;;;;5239144;28;20507;-79
2022/05/13 03:09:27;;;;;;;22.52;10.95;;;7.50;99.90;;;;;;5246870;28;20114;-80
2022/05/13 03:11:59;;;;;;;27.40;11.55;;;7.50;99.90;;;;;;5249152;28;20506;-79
2022/05/13 03:14:30;;;;;;;23.42;12.00;;;7.10;99.90;;;;;;5251001;28;20069;-79
2022/05/13 03:17:04;;;;;;;24.67;10.93;;;7.20;99.90;;;;;;5255934;28;20027;-79
2022/05/13 03:19:36;;;;;;;22.20;11.55;;;7.60;99.90;;;;;;5236902;28;20055;-80
2022/05/13 03:22:07;;;;;;;25.55;11.02;;;7.40;99.90;;;;;;5243365;28;20024;-80
2022/05/13 03:24:38;;;;;;;23.98;10.75;;;7.80;99.90;;;;;;5249040;28;20541;-79
2022/05/13 03:27:09;;;;;;;27.48;11.10;;;7.80;99.90;;;;;;5234993;28;20103;-80
2022/05/13 03:29:40;;;;;;;20.80;10.15;;;7.90;99.90;;;;;;5242243;28;20404;-80
2022/05/13 03:32:10;;;;;;;21.35;10.60;;;7.80;99.90;;;;;;5238820;28;20033;-80
2022/05/13 03:34:41;;;;;;;20.52;11.05;;;7.80;99.90;;;;;;5245385;28;20024;-79
2022/05/13 03:37:12;;;;;;;26.92;11.07;;;8.20;99.90;;;;;;5243983;28;20036;-80
2022/05/13 03:39:43;;;;;;;25.33;10.85;;;7.90;99.90;;;;;;5253024;28;20020;-79
2022/05/13 03:42:14;;;;;;;22.90;11.32;;;7.90;99.90;;;;;;5253691;28;20161;-80
2022/05/13 03:44:45;;;;;;;22.73;11.27;;;8.20;99.90;;;;;;5250671;28;20107;-79
2022/05/13 03:47:16;;;;;;;22.65;10.73;;;8.20;99.90;;;;;;5225396;28;20025;-80
2022/05/13 03:49:47;;;;;;;23.77;10.43;;;8.20;99.90;;;;;;5245326;28;20151;-79
2022/05/13 03:52:18;;;;;;;22.98;10.93;;;8.60;99.90;;;;;;5240770;28;20487;-80
2022/05/13 03:54:49;;;;;;;21.17;9.77;;;8.80;99.90;;;;;;5248039;28;20020;-79
2022/05/13 03:57:20;;;;;;;26.00;11.73;;;8.80;99.90;;;;;;5248009;28;20063;-79
2022/05/13 03:59:51;;;;;;;22.20;11.27;;;8.70;99.90;;;;;;5239236;28;20029;-80
2022/05/13 04:02:21;;;;;;;20.77;10.95;;;8.90;99.90;;;;;;5247400;28;20094;-79
2022/05/13 04:10:30;;;;;;;20.05;9.80;;;9.30;99.90;;;;;;5237431;28;20040;-79
2022/05/13 04:16:08;;;;;;;13.20;7.45;;;9.10;99.90;;;;;;5241162;28;20519;-80
2022/05/13 04:18:41;;;;;;;15.98;8.55;;;9.20;99.90;;;;;;5227164;28;20025;-80
2022/05/13 04:21:24;;;;;;;15.93;8.23;;;9.60;99.90;;;;;;5240317;28;20440;-79
2022/05/13 04:23:58;;;;;;;15.38;7.88;;;9.80;99.90;;;;;;5243114;28;20035;-79
2022/05/13 04:26:29;;;;;;;16.73;8.05;;;9.90;99.90;;;;;;5255137;28;20024;-79
2022/05/13 04:29:01;;;;;;;12.70;7.38;;;10.20;99.90;;;;;;5256137;28;20134;-80
2022/05/13 04:31:38;;;;;;;14.85;7.30;;;10.00;99.90;;;;;;5253298;28;20028;-80
2022/05/13 04:34:10;;;;;;;18.55;7.95;;;10.30;99.90;;;;;;5248906;28;20395;-80
2022/05/13 04:36:41;;;;;;;15.85;7.65;;;10.80;99.90;;;;;;5239497;28;20071;-79
2022/05/13 04:39:13;;;;;;;17.17;7.43;;;11.20;99.90;;;;;;5240758;28;20036;-80
2022/05/13 04:44:34;;;;;;;14.98;7.82;;;11.10;99.90;;;;;;5234028;28;20384;-80
2022/05/13 04:48:15;;;;;;;20.73;7.32;;;11.60;99.90;;;;;;5251450;28;20028;-80
2022/05/13 04:49:56;;;;;;;19.00;7.60;;;11.70;99.90;;;;;;5233256;28;20021;-80
2022/05/13 04:52:27;;;;;;;17.58;7.25;;;12.00;99.90;;;;;;5241450;28;20408;-79
2022/05/13 04:54:58;;;;;;;19.10;7.25;;;12.20;99.90;;;;;;5250115;28;20495;-80
2022/05/13 04:57:29;;;;;;;14.70;8.02;;;12.50;99.90;;;;;;5243793;28;20503;-80
2022/05/13 05:00:00;;;;;;;15.48;7.70;;;12.80;99.90;;;;;;5251571;28;20109;-80
2022/05/13 05:02:33;;;;;;;14.75;8.05;;;12.70;99.90;;;;;;5240440;28;20010;-79
2022/05/13 05:05:04;;;;;;;17.13;7.72;;;13.20;99.90;;;;;;5250299;28;20029;-80
2022/05/13 05:07:35;;;;;;;20.90;8.20;;;13.30;99.90;;;;;;5226812;28;20025;-80
2022/05/13 05:10:06;;;;;;;18.08;8.18;;;13.40;99.90;;;;;;5239781;28;20391;-80
2022/05/13 05:12:38;;;;;;;16.42;7.05;;;13.50;99.90;;;;;;5251306;28;20074;-80
2022/05/13 05:15:09;;;;;;;15.27;7.93;;;13.70;99.90;;;;;;5253617;28;20020;-79
2022/05/13 05:17:40;;;;;;;14.75;7.22;;;13.30;99.90;;;;;;5236799;28;20025;-79
2022/05/13 05:20:12;;;;;;;21.67;7.90;;;;;;;;;;5235965;28;20037;-81
2022/05/13 05:22:46;;;;;;;15.15;7.40;;;13.50;99.90;;;;;;5243332;28;20029;-81
2022/05/13 05:25:18;;;;;;;12.95;7.35;;;13.70;99.90;;;;;;5254300;28;20043;-79
2022/05/13 05:27:49;;;;;;;13.05;7.22;;;14.40;99.90;;;;;;5235524;28;20021;-80
2022/05/13 05:30:20;;;;;;;14.20;6.55;;;14.50;99.90;;;;;;5236084;28;20036;-81
2022/05/13 05:32:52;;;;;;;14.25;6.75;;;14.90;99.90;;;;;;5241048;28;20025;-78
2022/05/13 05:35:23;;;;;;;12.68;6.45;;;15.30;99.90;;;;;;5252989;28;20024;-78
2022/05/13 05:37:55;;;;;;;16.25;6.53;;;15.00;99.90;;;;;;5261567;28;20039;-85
2022/05/13 05:40:26;;;;;;;11.00;5.90;;;15.10;99.90;;;;;;5258791;28;20115;-78
2022/05/13 05:43:01;;;;;;;12.38;6.35;;;15.70;99.90;;;;;;5230760;28;20058;-81
2022/05/13 05:45:33;;;;;;;14.95;6.20;;;15.70;99.90;;;;;;5240065;28;20024;-77
2022/05/13 05:48:05;;;;;;;14.23;6.25;;;16.30;99.90;;;;;;5238275;28;20029;-80
2022/05/13 05:50:36;;;;;;;16.15;6.60;;;16.60;99.90;;;;;;5255790;28;20031;-81
2022/05/13 05:53:07;;;;;;;10.27;5.78;;;17.00;99.90;;;;;;5255257;28;20039;-81
2022/05/13 05:58:27;;;;;;;12.27;5.37;;;17.50;99.90;;;;;;5250593;28;20036;-77
2022/05/13 06:00:58;;;;;;;10.48;4.53;;;17.60;99.90;;;;;;5247610;28;20024;-79
2022/05/13 06:03:28;;;;;;;10.50;5.25;;;17.50;99.90;;;;;;5238315;28;20017;-79
2022/05/13 06:06:01;;;;;;;10.45;4.85;;;17.70;99.90;;;;;;5241939;28;20057;-79
2022/05/13 06:08:32;;;;;;;10.52;4.43;;;18.30;99.90;;;;;;5239804;28;20052;-81
2022/05/13 06:11:03;;;;;;;7.30;4.05;;;18.20;99.90;;;;;;5245765;28;20101;-79
2022/05/13 06:13:34;;;;;;;8.85;4.47;;;18.10;99.90;;;;;;5245096;28;20029;-80
2022/05/13 06:16:08;;;;;;;7.93;4.10;;;18.30;99.90;;;;;;5239063;28;20017;-79
2022/05/13 06:18:39;;;;;;;9.68;4.22;;;18.90;99.90;;;;;;5251862;28;20035;-80
2022/05/13 06:21:10;;;;;;;11.77;4.72;;;19.50;99.90;;;;;;5241089;28;20028;-82
2022/05/13 06:23:41;;;;;;;9.70;4.72;;;19.50;99.90;;;;;;5247553;28;20017;-81
2022/05/13 06:26:12;;;;;;;9.13;4.80;;;19.90;99.90;;;;;;5251937;28;20429;-82
2022/05/13 06:28:43;;;;;;;11.05;4.07;;;20.00;99.90;;;;;;5238130;28;20042;-81
2022/05/13 06:31:16;;;;;;;11.93;4.82;;;20.20;99.90;;;;;;5249773;28;20907;-82
2022/05/13 06:33:47;;;;;;;15.52;5.90;;;20.20;99.90;;;;;;5248974;28;20028;-83
2022/05/13 06:36:18;;;;;;;18.67;7.72;;;20.70;99.90;;;;;;5257479;28;20037;-83
2022/05/13 06:38:49;;;;;;;31.80;12.68;;;20.90;99.90;;;;;;5245140;28;20032;-82
2022/05/13 06:41:20;;;;;;;42.90;18.45;;;20.90;99.90;;;;;;5245006;28;20064;-82
2022/05/13 06:43:52;;;;;;;58.17;23.75;;;20.90;99.90;;;;;;5236512;28;20025;-81
2022/05/13 06:46:23;;;;;;;58.17;22.67;;;20.60;99.90;;;;;;5250056;28;20054;-83
2022/05/13 06:48:54;;;;;;;35.35;12.85;;;21.10;99.90;;;;;;5248922;28;20020;-83
2022/05/13 06:51:25;;;;;;;14.15;6.22;;;21.40;99.90;;;;;;5246751;28;20055;-79
2022/05/13 06:53:56;;;;;;;9.43;5.10;;;21.60;99.90;;;;;;5243931;28;20024;-79
2022/05/13 06:56:28;;;;;;;10.65;4.10;;;21.70;99.90;;;;;;5234806;28;20090;-82
2022/05/13 06:59:00;;;;;;;9.50;4.43;;;21.90;99.90;;;;;;5251042;28;20019;-82
2022/05/13 07:01:33;;;;;;;8.35;4.20;;;22.30;99.90;;;;;;5242844;28;20031;-82
2022/05/13 07:04:10;;;;;;;12.45;4.55;;;22.10;99.90;;;;;;5251041;28;20365;-80
2022/05/13 07:06:44;;;;;;;10.02;4.05;;;22.30;99.90;;;;;;5250151;28;20035;-79
2022/05/13 07:09:16;;;;;;;16.80;6.53;;;22.20;99.90;;;;;;5248122;28;20845;-79
2022/05/13 07:11:47;;;;;;;26.17;10.02;;;22.40;99.90;;;;;;5231396;28;20041;-79
2022/05/13 07:14:18;;;;;;;16.23;6.63;;;22.90;99.90;;;;;;5228920;28;20027;-78
2022/05/13 07:16:49;;;;;;;11.20;5.00;;;22.90;99.90;;;;;;5228639;28;20077;-81
2022/05/13 07:19:20;;;;;;;9.20;3.45;;;23.00;99.90;;;;;;5243179;28;20032;-81
2022/05/13 07:21:52;;;;;;;7.38;3.30;;;23.30;99.90;;;;;;5238887;28;20029;-81
2022/05/13 07:24:23;;;;;;;6.45;3.50;;;23.10;99.90;;;;;;5228238;28;20032;-79
2022/05/13 07:26:54;;;;;;;7.45;3.50;;;23.20;99.50;;;;;;5228293;28;20070;-78
2022/05/13 07:29:25;;;;;;;5.95;2.85;;;23.40;96.10;;;;;;5229844;28;20104;-79
2022/05/13 07:31:55;;;;;;;7.60;3.42;;;23.50;99.40;;;;;;5247387;28;20032;-81
2022/05/13 07:34:26;;;;;;;4.70;2.72;;;23.60;96.00;;;;;;5248849;28;20349;-81
2022/05/13 07:36:57;;;;;;;6.82;2.45;;;23.90;95.30;;;;;;5227582;28;20040;-81
2022/05/13 07:42:20;;;;;;;5.38;2.10;;;23.90;92.40;;;;;;5248538;28;20087;-81
2022/05/13 07:44:54;;;;;;;6.25;2.00;;;24.00;86.70;;;;;;5245938;28;20078;-81
2022/05/13 07:47:28;;;;;;;3.55;2.20;;;24.00;85.00;;;;;;5228271;28;20104;-81
2022/05/13 07:49:59;;;;;;;4.95;2.15;;;24.20;87.20;;;;;;5243288;28;20456;-81
2022/05/13 07:52:29;;;;;;;4.60;2.00;;;24.50;87.70;;;;;;5242177;28;20036;-80
2022/05/13 07:55:00;;;;;;;4.53;2.08;;;23.90;81.80;;;;;;5236440;28;20032;-81
2022/05/13 07:57:31;;;;;;;10.77;2.35;;;24.50;83.30;;;;;;5242285;28;20032;-79
2022/05/13 08:02:57;;;;;;;7.95;2.40;;;24.70;81.70;;;;;;5241756;28;20032;-80
2022/05/13 08:05:37;;;;;;;6.97;2.28;;;24.70;80.50;;;;;;5221372;28;20469;-79
2022/05/13 08:08:23;;;;;;;8.90;2.83;;;24.70;80.80;;;;;;5232027;28;20025;-85
2022/05/13 08:10:57;;;;;;;6.80;2.40;;;24.70;78.50;;;;;;5239795;28;20404;-83
2022/05/13 08:13:30;;;;;;;8.23;2.65;;;24.80;77.00;;;;;;5248311;28;20028;-84
2022/05/13 08:16:03;;;;;;;7.80;3.47;;;25.10;78.10;;;;;;5240025;28;20029;-80
2022/05/13 08:18:34;;;;;;;6.68;3.08;;;25.40;77.70;;;;;;5227416;28;20029;-79
2022/05/13 08:21:05;;;;;;;9.90;3.00;;;25.00;71.70;;;;;;5239897;28;20021;-80
2022/05/13 08:23:39;;;;;;;7.03;3.08;;;25.40;78.70;;;;;;5213632;28;20036;-78
2022/05/13 08:26:14;;;;;;;6.15;2.63;;;25.20;72.80;;;;;;5229483;28;20025;-82
2022/05/13 08:28:46;;;;;;;4.13;2.40;;;25.10;74.80;;;;;;5234262;28;20032;-81
2022/05/13 08:31:17;;;;;;;9.52;2.20;;;25.30;72.40;;;;;;5258797;28;20035;-84
2022/05/13 08:33:48;;;;;;;13.18;2.17;;;25.30;71.60;;;;;;5248288;28;20028;-84
2022/05/13 08:36:19;;;;;;;7.55;1.95;;;25.40;71.30;;;;;;5227721;28;20032;-83
2022/05/13 08:38:50;;;;;;;7.28;2.03;;;25.60;70.00;;;;;;5243079;28;20089;-82
2022/05/13 08:41:42;;;;;;;6.43;1.80;;;24.70;66.40;;;;;;5231833;28;20127;-84
2022/05/13 08:44:15;;;;;;;6.57;1.75;;;24.90;66.40;;;;;;5236775;28;20545;-82
2022/05/13 08:47:01;;;;;;;7.03;1.65;;;25.70;71.90;;;;;;5227460;28;20064;-81
2022/05/13 08:49:51;;;;;;;6.47;1.80;;;25.60;67.90;;;;;;5237417;28;20028;-82
2022/05/13 08:55:26;;;;;;;2.55;1.50;;;25.70;66.10;;;;;;5232757;28;19905;-83
2022/05/13 08:57:59;;;;;;;7.10;1.80;;;25.60;64.50;;;;;;5251922;28;20115;-81
2022/05/13 09:00:53;;;;;;;5.18;2.22;;;25.90;68.60;;;;;;5252331;28;20071;-83
2022/05/13 09:03:48;;;;;;;4.43;1.38;;;26.10;68.10;;;;;;5234362;28;20025;-81
2022/05/13 09:06:45;;;;;;;6.00;1.50;;;25.70;65.00;;;;;;5252102;28;20016;-82
2022/05/13 09:09:16;;;;;;;3.88;1.95;;;;;;;;;;5245845;28;20046;-83
2022/05/13 09:12:05;;;;;;;4.30;1.98;;;25.90;64.40;;;;;;5218468;28;20507;-82
2022/05/13 09:14:57;;;;;;;5.40;2.08;;;25.90;65.90;;;;;;5242594;28;20066;-84
2022/05/13 09:17:33;;;;;;;3.55;1.60;;;25.90;65.80;;;;;;5239305;28;20025;-81
2022/05/13 09:20:12;;;;;;;6.40;1.80;;;26.00;66.20;;;;;;5235261;28;20056;-81
2022/05/13 09:22:49;;;;;;;4.38;1.83;;;25.90;63.90;;;;;;5230318;28;20498;-81
2022/05/13 09:25:50;;;;;;;6.40;1.70;;;26.00;66.70;;;;;;5212768;28;20079;-81
2022/05/13 09:28:21;;;;;;;5.93;1.55;;;26.00;62.70;;;;;;5230742;28;20024;-82
2022/05/13 09:31:03;;;;;;;3.55;1.65;;;26.00;62.70;;;;;;5230695;28;20029;-82
2022/05/13 09:33:39;;;;;;;8.32;1.50;;;25.50;61.10;;;;;;5245776;28;20090;-80
2022/05/13 09:36:22;;;;;;;3.20;1.45;;;26.10;62.70;;;;;;5239420;28;20051;-79
2022/05/13 09:38:54;;;;;;;11.63;3.30;;;26.00;60.70;;;;;;5266933;28;20036;-79
2022/05/13 09:41:31;;;;;;;8.68;2.58;;;26.00;62.00;;;;;;5271731;28;20059;-79
2022/05/13 09:44:10;;;;;;;6.72;2.33;;;26.50;61.20;;;;;;5262045;28;20021;-80
2022/05/13 09:46:43;;;;;;;3.95;1.40;;;26.40;61.60;;;;;;5229074;28;20388;-78
2022/05/13 09:49:36;;;;;;;4.47;1.52;;;26.20;62.70;;;;;;5230367;28;20099;-77
2022/05/13 09:52:12;;;;;;;12.95;1.77;;;26.40;62.10;;;;;;5233219;28;20037;-80
2022/05/13 09:54:47;;;;;;;61.67;5.45;;;25.90;57.10;;;;;;5244006;28;20133;-76
2022/05/13 09:57:28;;;;;;;4.55;1.50;;;26.60;64.60;;;;;;5244391;28;20028;-78
2022/05/13 10:00:03;;;;;;;5.00;1.52;;;26.30;59.30;;;;;;5249986;28;20035;-79
2022/05/13 10:02:40;;;;;;;4.00;1.55;;;26.30;59.30;;;;;;5245805;28;20021;-80
2022/05/13 10:05:20;;;;;;;3.78;1.40;;;26.60;62.50;;;;;;5230030;28;20028;-80
2022/05/13 10:08:01;;;;;;;3.80;1.48;;;26.50;59.40;;;;;;5241452;28;20036;-80
2022/05/13 10:14:28;;;;;;;4.95;1.33;;;26.70;59.30;;;;;;5189775;28;20052;-78
2022/05/13 10:17:05;;;;;;;3.35;1.30;;;25.60;56.60;;;;;;5212069;28;20071;-77
2022/05/13 10:19:47;;;;;;;5.43;1.27;;;26.60;62.70;;;;;;5246240;28;20476;-77
2022/05/13 10:22:44;;;;;;;3.75;1.38;;;26.90;59.60;;;;;;5231196;28;20389;-79
2022/05/13 10:25:20;;;;;;;3.30;1.38;;;26.60;56.80;;;;;;5243677;28;20391;-77
2022/05/13 10:27:57;;;;;;;5.53;1.42;;;26.90;60.20;;;;;;5250216;28;20032;-79
2022/05/13 10:30:52;;;;;;;4.95;1.33;;;27.00;58.50;;;;;;5220985;28;20401;-82
2022/05/13 10:33:37;;;;;;;2.45;1.42;;;26.70;58.00;;;;;;5239363;28;20036;-83
2022/05/13 10:36:40;;;;;;;1.40;1.23;;;26.80;59.70;;;;;;5245653;28;20025;-81
2022/05/13 10:39:19;;;;;;;3.78;1.10;;;26.80;57.30;;;;;;5250986;28;20033;-81
2022/05/13 10:41:56;;;;;;;1.65;1.20;;;27.00;59.40;;;;;;5261487;28;20048;-82
2022/05/13 10:44:35;;;;;;;3.05;1.35;;;26.80;58.20;;;;;;5229464;28;20544;-82
2022/05/13 10:47:21;;;;;;;3.22;1.67;;;27.00;58.50;;;;;;5251491;28;20055;-81
2022/05/13 10:49:52;;;;;;;4.10;1.20;;;26.90;58.20;;;;;;5233723;28;20024;-77
2022/05/13 10:52:52;;;;;;;2.17;1.50;;;26.50;57.10;;;;;;5242628;28;20060;-77
2022/05/13 10:55:59;;;;;;;5.65;1.38;;;26.60;58.10;;;;;;5232131;28;20037;-81
2022/05/13 10:58:53;;;;;;;2.72;1.50;;;26.40;55.30;;;;;;5229251;28;20429;-78
2022/05/13 11:01:44;;;;;;;2.53;1.35;;;27.10;59.10;;;;;;5235727;28;20029;-82
2022/05/13 11:04:28;;;;;;;3.30;1.75;;;27.30;57.00;;;;;;5240219;28;20036;-77
2022/05/13 11:07:12;;;;;;;2.85;1.45;;;27.20;57.10;;;;;;5229464;28;20028;-78
2022/05/13 11:09:49;;;;;;;4.10;1.20;;;27.10;57.00;;;;;;5238315;28;20411;-77
2022/05/13 11:12:33;;;;;;;4.20;1.73;;;26.00;54.10;;;;;;5236014;28;20032;-78
2022/05/13 11:15:32;;;;;;;2.75;1.33;;;26.90;58.90;;;;;;5231425;28;20725;-77
2022/05/13 11:18:16;;;;;;;3.17;1.40;;;27.10;59.00;;;;;;5248243;28;20056;-78
2022/05/13 11:21:11;;;;;;;3.38;1.90;;;26.70;53.90;;;;;;5249022;28;20021;-77
2022/05/13 11:26:56;;;;;;;3.20;1.40;;;26.50;52.90;;;;;;5228696;28;20098;-78
2022/05/13 11:29:37;;;;;;;3.63;1.58;;;26.10;56.90;;;;;;5230001;28;20515;-77
2022/05/13 11:32:28;;;;;;;3.70;1.50;;;27.30;57.70;;;;;;5233620;28;20091;-77
2022/05/13 11:35:27;;;;;;;5.18;1.48;;;27.70;59.00;;;;;;5241741;28;20036;-77
2022/05/13 11:38:22;;;;;;;3.85;1.48;;;28.00;59.20;;;;;;5248644;28;20056;-77
2022/05/13 11:41:08;;;;;;;4.78;1.60;;;27.70;58.50;;;;;;5248014;28;20044;-77
2022/05/13 11:43:46;;;;;;;2.42;1.45;;;27.30;55.00;;;;;;5239580;28;20031;-79
2022/05/13 11:46:35;;;;;;;2.58;1.20;;;26.80;54.40;;;;;;5228166;28;20025;-80
2022/05/13 11:49:25;;;;;;;2.65;1.45;;;25.40;53.90;;;;;;5242819;28;20028;-77
2022/05/13 11:52:23;;;;;;;4.07;1.45;;;26.90;61.40;;;;;;5237430;28;20033;-77
2022/05/13 11:55:21;;;;;;;4.07;1.30;;;26.00;55.80;;;;;;5248112;28;20060;-78
2022/05/13 11:57:54;;;;;;;3.55;1.50;;;26.40;59.70;;;;;;5261467;28;20023;-81
2022/05/13 12:00:33;;;;;;;2.50;1.40;;;26.90;57.40;;;;;;5269735;28;20020;-80
2022/05/13 12:03:12;;;;;;;3.67;1.25;;;27.50;57.30;;;;;;5252441;28;20052;-79
2022/05/13 12:06:00;;;;;;;3.63;1.30;;;27.40;56.60;;;;;;5248432;28;20020;-79
2022/05/13 12:08:45;;;;;;;2.55;0.95;;;27.80;56.90;;;;;;5246390;28;20029;-78
2022/05/13 12:11:28;;;;;;;3.25;1.20;;;26.60;53.80;;;;;;5237198;28;20064;-79
2022/05/13 12:14:13;;;;;;;2.05;1.05;;;27.30;56.90;;;;;;5247684;28;20047;-80
2022/05/13 12:17:25;;;;;;;2.95;1.25;;;27.30;57.30;;;;;;5240196;28;20144;-77
2022/05/13 12:20:30;;;;;;;3.53;1.58;;;27.30;56.60;;;;;;5226351;28;20033;-76
2022/05/13 12:23:27;;;;;;;2.63;1.55;;;27.30;57.20;;;;;;5240858;28;20117;-78
2022/05/13 12:26:04;;;;;;;3.45;1.20;;;27.90;55.20;;;;;;5226348;28;20369;-77
2022/05/13 12:29:00;;;;;;;5.93;1.40;;;27.30;54.20;;;;;;5230368;28;20028;-80
2022/05/13 12:31:46;;;;;;;4.55;1.13;;;27.20;55.90;;;;;;5229236;28;20029;-76
2022/05/13 12:37:35;;;;;;;4.20;1.20;;;27.50;57.20;;;;;;5229991;28;20108;-77
2022/05/13 12:40:10;;;;;;;;;;;27.30;55.40;;;;;;5257904;28;20032;-77
2022/05/13 12:42:44;;;;;;;3.72;1.38;;;27.40;55.30;;;;;;5268836;28;19923;-78
2022/05/13 12:45:41;;;;;;;8.77;1.30;;;27.70;57.10;;;;;;5268359;28;20077;-79
2022/05/13 12:48:18;;;;;;;4.10;1.48;;;27.30;54.60;;;;;;5243425;28;20040;-79
2022/05/13 12:51:01;;;;;;;7.00;1.80;;;27.20;53.30;;;;;;5247060;28;20034;-80
2022/05/13 12:53:45;;;;;;;3.47;1.38;;;27.60;55.30;;;;;;5247860;28;20033;-83
2022/05/13 12:56:33;;;;;;;6.13;1.83;;;27.30;56.70;;;;;;5247600;28;20460;-79
2022/05/13 12:59:15;;;;;;;6.88;1.63;;;27.60;55.60;;;;;;5246765;28;20054;-78
2022/05/13 13:01:51;;;;;;;2.40;1.33;;;27.50;54.80;;;;;;5232045;28;20547;-77
2022/05/13 13:04:25;;;;;;;5.43;1.23;;;27.40;55.90;;;;;;5211866;28;20017;-78
2022/05/13 13:07:09;;;;;;;2.75;1.30;;;27.60;54.10;;;;;;5233821;28;20040;-77
2022/05/13 13:09:44;;;;;;;2.28;1.40;;;27.60;55.20;;;;;;5229859;28;20107;-77
2022/05/13 13:12:33;;;;;;;4.43;1.42;;;27.50;54.20;;;;;;5242656;28;20036;-80
2022/05/13 13:15:20;;;;;;;2.08;1.30;;;27.50;54.40;;;;;;5244883;28;20496;-79
2022/05/13 13:18:05;;;;;;;5.55;1.42;;;27.00;53.40;;;;;;5229793;28;20032;-76
2022/05/13 13:20:56;;;;;;;4.00;1.30;;;26.80;56.50;;;;;;5242799;28;20116;-78
2022/05/13 13:23:40;;;;;;;3.65;1.27;;;25.80;53.10;;;;;;5228041;28;20035;-78
2022/05/13 13:26:13;;;;;;;2.22;1.10;;;26.50;54.30;;;;;;5226534;28;20502;-78
2022/05/13 13:28:53;;;;;;;3.55;1.15;;;26.70;54.60;;;;;;5225768;28;20384;-77
2022/05/13 13:31:27;;;;;;;3.17;1.30;;;27.30;54.30;;;;;;5231093;28;20162;-77
2022/05/13 13:33:58;;;;;;;3.53;1.27;;;27.20;55.00;;;;;;5239668;28;20033;-78
2022/05/13 13:36:32;;;;;;;1.98;1.02;;;27.20;55.00;;;;;;5245404;28;20039;-77
2022/05/13 13:39:03;;;;;;;5.50;1.45;;;26.90;55.40;;;;;;5251174;28;20718;-76
2022/05/13 13:41:36;;;;;;;2.60;1.30;;;26.60;55.10;;;;;;5250623;28;20055;-76
2022/05/13 13:44:08;;;;;;;5.28;1.42;;;26.80;55.10;;;;;;5250791;28;20037;-76
2022/05/13 13:46:47;;;;;;;3.33;1.40;;;26.80;54.90;;;;;;5239397;28;20031;-78
2022/05/13 13:49:25;;;;;;;2.70;1.60;;;26.80;55.70;;;;;;5251045;28;20107;-78
2022/05/13 13:52:02;;;;;;;2.92;1.45;;;26.60;54.80;;;;;;5232575;28;20036;-77
2022/05/13 13:54:50;;;;;;;6.53;1.92;;;25.90;54.50;;;;;;5250897;28;20032;-79
2022/05/13 13:57:24;;;;;;;3.30;1.30;;;25.50;55.30;;;;;;5250981;28;20546;-79
2022/05/13 14:00:06;;;;;;;7.63;1.55;;;26.80;57.50;;;;;;5232321;28;20017;-79
2022/05/13 14:02:44;;;;;;;2.75;1.42;;;26.70;58.10;;;;;;5248690;28;20031;-78
2022/05/13 14:05:31;;;;;;;1.98;1.30;;;26.50;58.10;;;;;;5232860;28;20029;-78